sensor_id;sensor_type;location;lat;lon;timestamp;temperature;humidity
19652;DHT22;9974;52.146;14.668;2024-01-30T00:01:11;3.50;99.90
19652;DHT22;9974;52.146;14.668;2024-01-30T00:03:37;3.60;99.90
19652;DHT22;9974;52.146;14.668;2024-01-30T00:06:03;3.50;99.90
19652;DHT22;9974;52.146;14.668;2024-01-30T00:08:28;3.50;99.90
19652;DHT22;9974;52.146;14.668;2024-01-30T00:10:54;3.60;99.90
19652;DHT22;9974;52.146;14.668;2024-01-30T00:13:19;3.60;99.90
19652;DHT22;9974;52.146;14.668;2024-01-30T00:15:45;3.60;99.90
19652;DHT22;9974;52.146;14.668;2024-01-30T00:18:11;3.60;99.90
19652;DHT22;9974;52.146;14.668;2024-01-30T00:20:36;3.60;99.90
19652;DHT22;9974;52.146;14.668;2024-01-30T00:23:02;3.60;99.90
19652;DHT22;9974;52.146;14.668;2024-01-30T00:25:28;3.60;99.90
19652;DHT22;9974;52.146;14.668;2024-01-30T00:27:53;3.60;99.90
19652;DHT22;9974;52.146;14.668;2024-01-30T00:30:20;3.60;99.90
19652;DHT22;9974;52.146;14.668;2024-01-30T00:32:45;3.70;99.90
19652;DHT22;9974;52.146;14.668;2024-01-30T00:35:11;3.70;99.90
19652;DHT22;9974;52.146;14.668;2024-01-30T00:37:36;3.70;99.90
19652;DHT22;9974;52.146;14.668;2024-01-30T00:40:02;3.70;99.90
19652;DHT22;9974;52.146;14.668;2024-01-30T00:42:28;3.60;99.90
19652;DHT22;9974;52.146;14.668;2024-01-30T00:44:54;3.60;99.90
19652;DHT22;9974;52.146;14.668;2024-01-30T00:47:20;3.60;99.90
19652;DHT22;9974;52.146;14.668;2024-01-30T00:49:45;3.60;99.90
19652;DHT22;9974;52.146;14.668;2024-01-30T00:52:11;1.60;99.90
19652;DHT22;9974;52.146;14.668;2024-01-30T00:54:37;3.60;99.90
19652;DHT22;9974;52.146;14.668;2024-01-30T00:57:02;3.60;99.90
19652;DHT22;9974;52.146;14.668;2024-01-30T01:01:54;3.60;99.90
19652;DHT22;9974;52.146;14.668;2024-01-30T01:04:20;4.10;99.90
19652;DHT22;9974;52.146;14.668;2024-01-30T01:06:46;3.60;99.90
19652;DHT22;9974;52.146;14.668;2024-01-30T01:09:12;3.20;99.90
19652;DHT22;9974;52.146;14.668;2024-01-30T01:11:38;3.60;99.90
19652;DHT22;9974;52.146;14.668;2024-01-30T01:14:04;3.60;99.90
19652;DHT22;9974;52.146;14.668;2024-01-30T01:16:30;3.60;99.90
19652;DHT22;9974;52.146;14.668;2024-01-30T01:18:55;3.60;99.90
19652;DHT22;9974;52.146;14.668;2024-01-30T01:21:21;3.60;99.90
19652;DHT22;9974;52.146;14.668;2024-01-30T01:23:47;3.60;99.90
19652;DHT22;9974;52.146;14.668;2024-01-30T01:26:12;3.60;99.90
19652;DHT22;9974;52.146;14.668;2024-01-30T01:28:41;3.60;99.90
19652;DHT22;9974;52.146;14.668;2024-01-30T01:31:07;3.50;99.90
19652;DHT22;9974;52.146;14.668;2024-01-30T01:33:33;3.50;99.90
19652;DHT22;9974;52.146;14.668;2024-01-30T01:35:59;3.50;99.90
19652;DHT22;9974;52.146;14.668;2024-01-30T01:38:25;3.50;99.90
19652;DHT22;9974;52.146;14.668;2024-01-30T01:40:50;3.40;99.90
19652;DHT22;9974;52.146;14.668;2024-01-30T01:43:16;3.40;99.90
19652;DHT22;9974;52.146;14.668;2024-01-30T01:45:42;3.40;99.90
19652;DHT22;9974;52.146;14.668;2024-01-30T01:48:08;3.40;99.90
19652;DHT22;9974;52.146;14.668;2024-01-30T01:50:34;3.40;99.90
19652;DHT22;9974;52.146;14.668;2024-01-30T01:53:00;3.30;99.90
19652;DHT22;9974;52.146;14.668;2024-01-30T01:55:27;3.30;99.90
19652;DHT22;9974;52.146;14.668;2024-01-30T01:57:54;3.40;99.90
19652;DHT22;9974;52.146;14.668;2024-01-30T02:00:20;3.30;99.90
19652;DHT22;9974;52.146;14.668;2024-01-30T02:02:46;3.30;99.90
19652;DHT22;9974;52.146;14.668;2024-01-30T02:05:12;3.30;99.90
19652;DHT22;9974;52.146;14.668;2024-01-30T02:07:38;3.30;99.90
19652;DHT22;9974;52.146;14.668;2024-01-30T02:10:03;3.00;99.90
19652;DHT22;9974;52.146;14.668;2024-01-30T02:12:29;3.30;99.90
19652;DHT22;9974;52.146;14.668;2024-01-30T02:14:55;3.30;99.90
19652;DHT22;9974;52.146;14.668;2024-01-30T02:17:21;3.30;99.90
19652;DHT22;9974;52.146;14.668;2024-01-30T02:19:48;3.20;99.90
19652;DHT22;9974;52.146;14.668;2024-01-30T02:22:14;3.10;99.90
19652;DHT22;9974;52.146;14.668;2024-01-30T02:24:40;3.20;99.90
19652;DHT22;9974;52.146;14.668;2024-01-30T02:27:05;3.00;99.90
19652;DHT22;9974;52.146;14.668;2024-01-30T02:29:31;3.20;99.90
19652;DHT22;9974;52.146;14.668;2024-01-30T02:31:56;4.00;99.90
19652;DHT22;9974;52.146;14.668;2024-01-30T02:34:23;3.20;99.90
19652;DHT22;9974;52.146;14.668;2024-01-30T02:36:48;3.20;99.90
19652;DHT22;9974;52.146;14.668;2024-01-30T02:39:14;3.20;99.90
19652;DHT22;9974;52.146;14.668;2024-01-30T02:41:40;3.10;99.90
19652;DHT22;9974;52.146;14.668;2024-01-30T02:44:05;3.20;99.90
19652;DHT22;9974;52.146;14.668;2024-01-30T02:46:31;3.30;99.90
19652;DHT22;9974;52.146;14.668;2024-01-30T02:48:56;3.20;99.90
19652;DHT22;9974;52.146;14.668;2024-01-30T02:51:22;3.20;99.90
19652;DHT22;9974;52.146;14.668;2024-01-30T02:53:48;3.20;99.90
19652;DHT22;9974;52.146;14.668;2024-01-30T02:56:13;3.30;99.90
19652;DHT22;9974;52.146;14.668;2024-01-30T02:58:39;3.10;99.90
19652;DHT22;9974;52.146;14.668;2024-01-30T03:01:05;3.00;99.90
19652;DHT22;9974;52.146;14.668;2024-01-30T03:03:31;3.20;99.90
19652;DHT22;9974;52.146;14.668;2024-01-30T03:05:57;3.20;99.90
19652;DHT22;9974;52.146;14.668;2024-01-30T03:08:22;3.20;99.90
19652;DHT22;9974;52.146;14.668;2024-01-30T03:10:48;3.20;99.90
19652;DHT22;9974;52.146;14.668;2024-01-30T03:13:14;3.20;99.90
19652;DHT22;9974;52.146;14.668;2024-01-30T03:15:39;3.20;99.90
19652;DHT22;9974;52.146;14.668;2024-01-30T03:18:05;3.20;99.90
19652;DHT22;9974;52.146;14.668;2024-01-30T03:20:31;3.20;99.90
19652;DHT22;9974;52.146;14.668;2024-01-30T03:22:56;3.00;99.90
19652;DHT22;9974;52.146;14.668;2024-01-30T03:25:22;3.20;99.90
19652;DHT22;9974;52.146;14.668;2024-01-30T03:27:48;2.90;99.90
19652;DHT22;9974;52.146;14.668;2024-01-30T03:30:14;3.10;99.90
19652;DHT22;9974;52.146;14.668;2024-01-30T03:32:39;3.50;99.90
19652;DHT22;9974;52.146;14.668;2024-01-30T03:35:05;3.10;99.90
19652;DHT22;9974;52.146;14.668;2024-01-30T03:37:31;3.10;99.90
19652;DHT22;9974;52.146;14.668;2024-01-30T03:39:56;3.60;99.90
19652;DHT22;9974;52.146;14.668;2024-01-30T03:42:22;3.10;99.90
19652;DHT22;9974;52.146;14.668;2024-01-30T03:44:48;3.10;99.90
19652;DHT22;9974;52.146;14.668;2024-01-30T03:47:13;3.00;99.90
19652;DHT22;9974;52.146;14.668;2024-01-30T03:49:39;3.00;99.90
19652;DHT22;9974;52.146;14.668;2024-01-30T03:52:05;3.00;99.90
19652;DHT22;9974;52.146;14.668;2024-01-30T03:54:30;3.00;99.90
19652;DHT22;9974;52.146;14.668;2024-01-30T03:56:56;2.80;99.90
19652;DHT22;9974;52.146;14.668;2024-01-30T03:59:22;3.50;99.90
19652;DHT22;9974;52.146;14.668;2024-01-30T04:01:49;3.70;99.90
19652;DHT22;9974;52.146;14.668;2024-01-30T04:04:16;2.90;99.90
19652;DHT22;9974;52.146;14.668;2024-01-30T04:06:42;2.90;99.90
19652;DHT22;9974;52.146;14.668;2024-01-30T04:09:08;2.80;99.90
19652;DHT22;9974;52.146;14.668;2024-01-30T04:11:34;2.50;99.90
19652;DHT22;9974;52.146;14.668;2024-01-30T04:14:00;2.60;99.90
19652;DHT22;9974;52.146;14.668;2024-01-30T04:16:25;2.70;99.90
19652;DHT22;9974;52.146;14.668;2024-01-30T04:18:51;2.70;99.90
19652;DHT22;9974;52.146;14.668;2024-01-30T04:21:17;2.60;99.90
19652;DHT22;9974;52.146;14.668;2024-01-30T04:23:43;2.60;99.90
19652;DHT22;9974;52.146;14.668;2024-01-30T04:26:08;2.60;99.90
19652;DHT22;9974;52.146;14.668;2024-01-30T04:28:34;2.60;99.90
19652;DHT22;9974;52.146;14.668;2024-01-30T04:30:59;2.60;99.90
19652;DHT22;9974;52.146;14.668;2024-01-30T04:33:25;2.60;99.90
19652;DHT22;9974;52.146;14.668;2024-01-30T04:35:51;2.70;99.90
19652;DHT22;9974;52.146;14.668;2024-01-30T04:38:17;2.60;99.90
19652;DHT22;9974;52.146;14.668;2024-01-30T04:40:43;2.60;99.90
19652;DHT22;9974;52.146;14.668;2024-01-30T04:43:08;2.60;99.90
19652;DHT22;9974;52.146;14.668;2024-01-30T04:45:35;2.70;99.90
19652;DHT22;9974;52.146;14.668;2024-01-30T04:48:00;2.60;99.90
19652;DHT22;9974;52.146;14.668;2024-01-30T04:50:26;2.60;99.90
19652;DHT22;9974;52.146;14.668;2024-01-30T04:52:52;2.60;99.90
19652;DHT22;9974;52.146;14.668;2024-01-30T04:55:17;2.70;99.90
19652;DHT22;9974;52.146;14.668;2024-01-30T04:57:43;2.80;99.90
19652;DHT22;9974;52.146;14.668;2024-01-30T05:00:09;2.70;99.90
19652;DHT22;9974;52.146;14.668;2024-01-30T05:02:35;2.60;99.90
19652;DHT22;9974;52.146;14.668;2024-01-30T05:05:00;2.60;99.90
19652;DHT22;9974;52.146;14.668;2024-01-30T05:07:26;2.70;99.90
19652;DHT22;9974;52.146;14.668;2024-01-30T05:09:52;2.60;99.90
19652;DHT22;9974;52.146;14.668;2024-01-30T05:12:17;2.80;99.90
19652;DHT22;9974;52.146;14.668;2024-01-30T05:14:43;2.60;99.90
19652;DHT22;9974;52.146;14.668;2024-01-30T05:17:08;3.00;99.90
19652;DHT22;9974;52.146;14.668;2024-01-30T05:19:35;2.60;99.90
19652;DHT22;9974;52.146;14.668;2024-01-30T05:22:01;2.60;99.90
19652;DHT22;9974;52.146;14.668;2024-01-30T05:24:26;2.60;99.90
19652;DHT22;9974;52.146;14.668;2024-01-30T05:26:52;2.50;99.90
19652;DHT22;9974;52.146;14.668;2024-01-30T05:29:17;2.60;99.90
19652;DHT22;9974;52.146;14.668;2024-01-30T05:31:43;2.90;99.90
19652;DHT22;9974;52.146;14.668;2024-01-30T05:34:09;2.60;99.90
19652;DHT22;9974;52.146;14.668;2024-01-30T05:36:34;2.60;99.90
19652;DHT22;9974;52.146;14.668;2024-01-30T05:39:00;2.70;99.90
19652;DHT22;9974;52.146;14.668;2024-01-30T05:41:26;2.60;99.90
19652;DHT22;9974;52.146;14.668;2024-01-30T05:43:51;2.60;99.90
19652;DHT22;9974;52.146;14.668;2024-01-30T05:46:17;2.60;99.90
19652;DHT22;9974;52.146;14.668;2024-01-30T05:48:43;2.60;99.90
19652;DHT22;9974;52.146;14.668;2024-01-30T05:51:08;2.60;99.90
19652;DHT22;9974;52.146;14.668;2024-01-30T05:53:34;2.60;99.90
19652;DHT22;9974;52.146;14.668;2024-01-30T05:56:01;2.60;99.90
19652;DHT22;9974;52.146;14.668;2024-01-30T05:58:27;2.60;99.90
19652;DHT22;9974;52.146;14.668;2024-01-30T06:00:52;3.00;99.90
19652;DHT22;9974;52.146;14.668;2024-01-30T06:03:18;2.60;99.90
19652;DHT22;9974;52.146;14.668;2024-01-30T06:05:50;2.60;99.90
19652;DHT22;9974;52.146;14.668;2024-01-30T06:08:15;2.60;99.90
19652;DHT22;9974;52.146;14.668;2024-01-30T06:10:41;2.60;99.90
19652;DHT22;9974;52.146;14.668;2024-01-30T06:13:06;2.60;99.90
19652;DHT22;9974;52.146;14.668;2024-01-30T06:15:32;2.60;99.90
19652;DHT22;9974;52.146;14.668;2024-01-30T06:17:58;2.80;99.90
19652;DHT22;9974;52.146;14.668;2024-01-30T06:20:24;2.60;99.90
19652;DHT22;9974;52.146;14.668;2024-01-30T06:22:49;2.70;99.90
19652;DHT22;9974;52.146;14.668;2024-01-30T06:25:15;2.70;99.90
19652;DHT22;9974;52.146;14.668;2024-01-30T06:27:42;2.70;99.90
19652;DHT22;9974;52.146;14.668;2024-01-30T06:30:08;2.70;99.90
19652;DHT22;9974;52.146;14.668;2024-01-30T06:32:35;2.70;99.90
19652;DHT22;9974;52.146;14.668;2024-01-30T06:35:01;2.70;99.90
19652;DHT22;9974;52.146;14.668;2024-01-30T06:37:27;2.70;99.90
19652;DHT22;9974;52.146;14.668;2024-01-30T06:39:52;2.60;99.90
19652;DHT22;9974;52.146;14.668;2024-01-30T06:42:18;2.70;99.90
19652;DHT22;9974;52.146;14.668;2024-01-30T06:44:44;2.70;99.90
19652;DHT22;9974;52.146;14.668;2024-01-30T06:47:09;2.70;99.90
19652;DHT22;9974;52.146;14.668;2024-01-30T06:49:35;2.70;99.90
19652;DHT22;9974;52.146;14.668;2024-01-30T06:52:06;2.70;99.90
19652;DHT22;9974;52.146;14.668;2024-01-30T06:54:32;2.60;99.90
19652;DHT22;9974;52.146;14.668;2024-01-30T06:56:58;2.70;99.90
19652;DHT22;9974;52.146;14.668;2024-01-30T06:59:24;2.60;99.90
19652;DHT22;9974;52.146;14.668;2024-01-30T07:01:50;2.60;99.90
19652;DHT22;9974;52.146;14.668;2024-01-30T07:04:15;2.60;99.90
19652;DHT22;9974;52.146;14.668;2024-01-30T07:06:41;2.50;99.90
19652;DHT22;9974;52.146;14.668;2024-01-30T07:09:07;2.60;99.90
19652;DHT22;9974;52.146;14.668;2024-01-30T07:11:33;2.70;99.90
19652;DHT22;9974;52.146;14.668;2024-01-30T07:13:59;2.70;99.90
19652;DHT22;9974;52.146;14.668;2024-01-30T07:16:24;2.60;99.90
19652;DHT22;9974;52.146;14.668;2024-01-30T07:18:50;2.70;99.90
19652;DHT22;9974;52.146;14.668;2024-01-30T07:21:16;2.50;99.90
19652;DHT22;9974;52.146;14.668;2024-01-30T07:23:42;2.80;99.90
19652;DHT22;9974;52.146;14.668;2024-01-30T07:26:08;2.50;99.90
19652;DHT22;9974;52.146;14.668;2024-01-30T07:28:33;2.80;99.90
19652;DHT22;9974;52.146;14.668;2024-01-30T07:31:00;2.80;99.90
19652;DHT22;9974;52.146;14.668;2024-01-30T07:33:25;2.90;99.90
19652;DHT22;9974;52.146;14.668;2024-01-30T07:35:52;2.60;99.90
19652;DHT22;9974;52.146;14.668;2024-01-30T07:38:18;2.90;99.90
19652;DHT22;9974;52.146;14.668;2024-01-30T07:40:43;2.90;99.90
19652;DHT22;9974;52.146;14.668;2024-01-30T07:43:09;3.00;99.90
19652;DHT22;9974;52.146;14.668;2024-01-30T07:45:35;3.00;99.90
19652;DHT22;9974;52.146;14.668;2024-01-30T07:48:01;4.20;99.90
19652;DHT22;9974;52.146;14.668;2024-01-30T07:50:26;3.60;99.90
19652;DHT22;9974;52.146;14.668;2024-01-30T07:52:52;3.10;99.90
19652;DHT22;9974;52.146;14.668;2024-01-30T07:55:20;3.20;99.90
19652;DHT22;9974;52.146;14.668;2024-01-30T07:57:50;3.30;99.90
19652;DHT22;9974;52.146;14.668;2024-01-30T08:00:17;3.30;99.90
19652;DHT22;9974;52.146;14.668;2024-01-30T08:02:44;3.30;99.90
19652;DHT22;9974;52.146;14.668;2024-01-30T08:05:10;3.30;99.90
19652;DHT22;9974;52.146;14.668;2024-01-30T08:07:36;3.30;99.90
19652;DHT22;9974;52.146;14.668;2024-01-30T08:10:02;3.40;99.90
19652;DHT22;9974;52.146;14.668;2024-01-30T08:12:27;3.30;99.90
19652;DHT22;9974;52.146;14.668;2024-01-30T08:14:53;3.40;99.90
19652;DHT22;9974;52.146;14.668;2024-01-30T08:17:19;3.40;99.90
19652;DHT22;9974;52.146;14.668;2024-01-30T08:19:44;3.40;99.90
19652;DHT22;9974;52.146;14.668;2024-01-30T08:22:11;3.50;99.90
19652;DHT22;9974;52.146;14.668;2024-01-30T08:24:37;3.50;99.90
19652;DHT22;9974;52.146;14.668;2024-01-30T08:27:03;3.60;99.90
19652;DHT22;9974;52.146;14.668;2024-01-30T08:29:30;3.60;99.90
19652;DHT22;9974;52.146;14.668;2024-01-30T08:31:55;2.70;99.90
19652;DHT22;9974;52.146;14.668;2024-01-30T08:34:21;3.70;99.90
19652;DHT22;9974;52.146;14.668;2024-01-30T08:36:47;5.30;99.90
19652;DHT22;9974;52.146;14.668;2024-01-30T08:39:13;3.80;99.90
19652;DHT22;9974;52.146;14.668;2024-01-30T08:41:39;3.70;99.90
19652;DHT22;9974;52.146;14.668;2024-01-30T08:44:04;3.80;99.90
19652;DHT22;9974;52.146;14.668;2024-01-30T08:46:30;3.90;99.90
19652;DHT22;9974;52.146;14.668;2024-01-30T08:48:56;3.90;99.90
19652;DHT22;9974;52.146;14.668;2024-01-30T08:51:21;4.00;99.90
19652;DHT22;9974;52.146;14.668;2024-01-30T08:53:47;4.00;99.90
19652;DHT22;9974;52.146;14.668;2024-01-30T08:56:12;4.00;99.90
19652;DHT22;9974;52.146;14.668;2024-01-30T08:58:38;4.00;99.90
19652;DHT22;9974;52.146;14.668;2024-01-30T09:01:04;4.10;99.90
19652;DHT22;9974;52.146;14.668;2024-01-30T09:03:31;4.30;99.90
19652;DHT22;9974;52.146;14.668;2024-01-30T09:05:56;4.30;99.90
19652;DHT22;9974;52.146;14.668;2024-01-30T09:08:22;4.30;99.90
19652;DHT22;9974;52.146;14.668;2024-01-30T09:10:48;4.10;99.90
19652;DHT22;9974;52.146;14.668;2024-01-30T09:13:15;4.40;99.90
19652;DHT22;9974;52.146;14.668;2024-01-30T09:15:41;4.40;99.90
19652;DHT22;9974;52.146;14.668;2024-01-30T09:18:07;4.40;99.90
19652;DHT22;9974;52.146;14.668;2024-01-30T09:20:32;4.50;99.90
19652;DHT22;9974;52.146;14.668;2024-01-30T09:22:58;4.60;99.90
19652;DHT22;9974;52.146;14.668;2024-01-30T09:25:24;4.60;99.90
19652;DHT22;9974;52.146;14.668;2024-01-30T09:27:49;4.70;99.90
19652;DHT22;9974;52.146;14.668;2024-01-30T09:30:15;4.40;99.90
19652;DHT22;9974;52.146;14.668;2024-01-30T09:32:41;4.90;99.90
19652;DHT22;9974;52.146;14.668;2024-01-30T09:35:07;4.90;99.90
19652;DHT22;9974;52.146;14.668;2024-01-30T09:37:32;5.10;99.90
19652;DHT22;9974;52.146;14.668;2024-01-30T09:39:58;5.10;99.90
19652;DHT22;9974;52.146;14.668;2024-01-30T09:42:26;5.20;99.90
19652;DHT22;9974;52.146;14.668;2024-01-30T09:44:54;5.30;99.90
19652;DHT22;9974;52.146;14.668;2024-01-30T09:47:19;5.30;99.90
19652;DHT22;9974;52.146;14.668;2024-01-30T09:49:45;5.30;99.90
19652;DHT22;9974;52.146;14.668;2024-01-30T09:52:11;5.40;99.90
19652;DHT22;9974;52.146;14.668;2024-01-30T09:54:37;5.40;99.90
19652;DHT22;9974;52.146;14.668;2024-01-30T09:57:04;5.40;99.90
19652;DHT22;9974;52.146;14.668;2024-01-30T09:59:30;5.50;99.90
19652;DHT22;9974;52.146;14.668;2024-01-30T10:01:56;5.60;99.90
19652;DHT22;9974;52.146;14.668;2024-01-30T10:04:22;5.70;99.90
19652;DHT22;9974;52.146;14.668;2024-01-30T10:06:47;5.80;99.90
19652;DHT22;9974;52.146;14.668;2024-01-30T10:09:13;5.90;99.90
19652;DHT22;9974;52.146;14.668;2024-01-30T10:11:39;6.10;99.90
19652;DHT22;9974;52.146;14.668;2024-01-30T10:14:04;6.10;99.90
19652;DHT22;9974;52.146;14.668;2024-01-30T10:16:30;6.10;99.90
19652;DHT22;9974;52.146;14.668;2024-01-30T10:18:55;6.50;99.90
19652;DHT22;9974;52.146;14.668;2024-01-30T10:21:21;7.40;99.90
19652;DHT22;9974;52.146;14.668;2024-01-30T10:23:47;6.90;99.90
19652;DHT22;9974;52.146;14.668;2024-01-30T10:26:13;6.80;99.90
19652;DHT22;9974;52.146;14.668;2024-01-30T10:28:39;6.90;99.90
19652;DHT22;9974;52.146;14.668;2024-01-30T10:31:04;6.90;99.90
19652;DHT22;9974;52.146;14.668;2024-01-30T10:33:30;6.80;99.90
19652;DHT22;9974;52.146;14.668;2024-01-30T10:36:03;6.80;99.90
19652;DHT22;9974;52.146;14.668;2024-01-30T10:38:29;7.00;99.90
19652;DHT22;9974;52.146;14.668;2024-01-30T10:40:59;7.10;99.90
19652;DHT22;9974;52.146;14.668;2024-01-30T10:43:30;7.20;99.90
19652;DHT22;9974;52.146;14.668;2024-01-30T10:45:58;7.30;99.90
19652;DHT22;9974;52.146;14.668;2024-01-30T10:48:32;7.30;99.90
19652;DHT22;9974;52.146;14.668;2024-01-30T10:51:02;7.30;99.90
19652;DHT22;9974;52.146;14.668;2024-01-30T10:53:27;7.30;99.90
19652;DHT22;9974;52.146;14.668;2024-01-30T10:55:54;7.30;99.90
19652;DHT22;9974;52.146;14.668;2024-01-30T10:58:20;7.30;99.90
19652;DHT22;9974;52.146;14.668;2024-01-30T11:00:46;7.40;99.90
19652;DHT22;9974;52.146;14.668;2024-01-30T11:03:12;7.60;99.90
19652;DHT22;9974;52.146;14.668;2024-01-30T11:05:40;7.70;99.90
19652;DHT22;9974;52.146;14.668;2024-01-30T11:08:12;7.80;99.90
19652;DHT22;9974;52.146;14.668;2024-01-30T11:10:45;7.80;99.90
19652;DHT22;9974;52.146;14.668;2024-01-30T11:13:13;8.00;99.90
19652;DHT22;9974;52.146;14.668;2024-01-30T11:15:39;8.00;99.90
19652;DHT22;9974;52.146;14.668;2024-01-30T11:18:05;8.20;99.90
19652;DHT22;9974;52.146;14.668;2024-01-30T11:20:31;8.20;99.90
19652;DHT22;9974;52.146;14.668;2024-01-30T11:22:57;8.30;99.90
19652;DHT22;9974;52.146;14.668;2024-01-30T11:25:24;8.40;99.90
19652;DHT22;9974;52.146;14.668;2024-01-30T11:27:51;8.40;99.90
19652;DHT22;9974;52.146;14.668;2024-01-30T11:35:30;8.70;99.90
19652;DHT22;9974;52.146;14.668;2024-01-30T11:37:57;8.80;99.90
19652;DHT22;9974;52.146;14.668;2024-01-30T11:40:24;9.00;99.90
19652;DHT22;9974;52.146;14.668;2024-01-30T11:42:51;9.00;99.90
19652;DHT22;9974;52.146;14.668;2024-01-30T11:45:17;9.20;99.90
19652;DHT22;9974;52.146;14.668;2024-01-30T11:47:42;9.30;99.90
19652;DHT22;9974;52.146;14.668;2024-01-30T11:50:08;9.30;99.90
19652;DHT22;9974;52.146;14.668;2024-01-30T11:52:36;9.50;99.90
19652;DHT22;9974;52.146;14.668;2024-01-30T11:55:02;9.60;99.90
19652;DHT22;9974;52.146;14.668;2024-01-30T11:57:28;9.80;99.90
19652;DHT22;9974;52.146;14.668;2024-01-30T11:59:53;9.90;99.90
19652;DHT22;9974;52.146;14.668;2024-01-30T12:02:19;9.90;99.90
19652;DHT22;9974;52.146;14.668;2024-01-30T12:04:45;10.00;99.90
19652;DHT22;9974;52.146;14.668;2024-01-30T12:07:11;10.20;99.90
19652;DHT22;9974;52.146;14.668;2024-01-30T12:09:36;10.20;99.90
19652;DHT22;9974;52.146;14.668;2024-01-30T12:12:02;10.20;99.90
19652;DHT22;9974;52.146;14.668;2024-01-30T12:14:28;10.30;99.90
19652;DHT22;9974;52.146;14.668;2024-01-30T12:16:54;10.40;99.90
19652;DHT22;9974;52.146;14.668;2024-01-30T12:21:57;10.30;99.90
19652;DHT22;9974;52.146;14.668;2024-01-30T12:29:17;10.00;99.90
19652;DHT22;9974;52.146;14.668;2024-01-30T12:31:42;10.00;99.90
19652;DHT22;9974;52.146;14.668;2024-01-30T12:34:09;9.90;99.90
19652;DHT22;9974;52.146;14.668;2024-01-30T12:36:34;9.80;99.90
19652;DHT22;9974;52.146;14.668;2024-01-30T12:39:01;9.80;99.90
19652;DHT22;9974;52.146;14.668;2024-01-30T12:41:26;9.70;99.90
19652;DHT22;9974;52.146;14.668;2024-01-30T12:43:56;9.70;99.90
19652;DHT22;9974;52.146;14.668;2024-01-30T12:46:25;9.70;99.90
19652;DHT22;9974;52.146;14.668;2024-01-30T12:48:53;9.70;99.90
19652;DHT22;9974;52.146;14.668;2024-01-30T12:51:18;9.70;99.90
19652;DHT22;9974;52.146;14.668;2024-01-30T12:53:44;9.60;99.90
19652;DHT22;9974;52.146;14.668;2024-01-30T12:56:11;9.70;99.90
19652;DHT22;9974;52.146;14.668;2024-01-30T12:58:37;9.60;99.90
19652;DHT22;9974;52.146;14.668;2024-01-30T13:01:03;9.60;99.90
19652;DHT22;9974;52.146;14.668;2024-01-30T13:03:28;9.50;99.90
19652;DHT22;9974;52.146;14.668;2024-01-30T13:05:54;9.50;99.90
19652;DHT22;9974;52.146;14.668;2024-01-30T13:08:20;9.60;99.90
19652;DHT22;9974;52.146;14.668;2024-01-30T13:10:46;9.50;99.90
19652;DHT22;9974;52.146;14.668;2024-01-30T13:13:12;9.50;99.90
19652;DHT22;9974;52.146;14.668;2024-01-30T13:15:37;9.50;99.90
19652;DHT22;9974;52.146;14.668;2024-01-30T13:18:03;9.50;99.90
19652;DHT22;9974;52.146;14.668;2024-01-30T13:20:30;9.40;99.90
19652;DHT22;9974;52.146;14.668;2024-01-30T13:22:56;9.50;99.90
19652;DHT22;9974;52.146;14.668;2024-01-30T13:25:21;9.50;99.90
19652;DHT22;9974;52.146;14.668;2024-01-30T13:27:47;9.60;99.90
19652;DHT22;9974;52.146;14.668;2024-01-30T13:30:12;9.70;99.90
19652;DHT22;9974;52.146;14.668;2024-01-30T13:32:39;9.70;99.90
19652;DHT22;9974;52.146;14.668;2024-01-30T13:35:06;9.70;99.90
19652;DHT22;9974;52.146;14.668;2024-01-30T13:37:32;9.60;99.90
19652;DHT22;9974;52.146;14.668;2024-01-30T13:39:57;9.70;99.90
19652;DHT22;9974;52.146;14.668;2024-01-30T13:42:23;9.60;99.90
19652;DHT22;9974;52.146;14.668;2024-01-30T13:44:49;9.50;99.90
19652;DHT22;9974;52.146;14.668;2024-01-30T13:47:14;9.40;99.90
19652;DHT22;9974;52.146;14.668;2024-01-30T13:49:40;9.40;99.90
19652;DHT22;9974;52.146;14.668;2024-01-30T13:52:06;9.40;99.90
19652;DHT22;9974;52.146;14.668;2024-01-30T13:54:31;9.40;99.90
19652;DHT22;9974;52.146;14.668;2024-01-30T13:56:57;9.40;99.90
19652;DHT22;9974;52.146;14.668;2024-01-30T13:59:22;9.40;99.90
19652;DHT22;9974;52.146;14.668;2024-01-30T14:01:50;9.30;99.90
19652;DHT22;9974;52.146;14.668;2024-01-30T14:04:16;9.30;99.90
19652;DHT22;9974;52.146;14.668;2024-01-30T14:06:42;9.20;99.90
19652;DHT22;9974;52.146;14.668;2024-01-30T14:09:07;9.20;99.90
19652;DHT22;9974;52.146;14.668;2024-01-30T14:11:33;9.10;99.90
19652;DHT22;9974;52.146;14.668;2024-01-30T14:13:59;9.10;99.90
19652;DHT22;9974;52.146;14.668;2024-01-30T14:16:24;9.00;99.90
19652;DHT22;9974;52.146;14.668;2024-01-30T14:18:50;8.90;99.90
19652;DHT22;9974;52.146;14.668;2024-01-30T14:21:16;8.90;99.90
19652;DHT22;9974;52.146;14.668;2024-01-30T14:23:41;8.80;99.90
19652;DHT22;9974;52.146;14.668;2024-01-30T14:26:07;8.80;99.90
19652;DHT22;9974;52.146;14.668;2024-01-30T14:28:32;8.80;99.90
19652;DHT22;9974;52.146;14.668;2024-01-30T14:30:58;8.70;99.90
19652;DHT22;9974;52.146;14.668;2024-01-30T14:33:24;8.70;99.90
19652;DHT22;9974;52.146;14.668;2024-01-30T14:35:51;8.60;99.90
19652;DHT22;9974;52.146;14.668;2024-01-30T14:38:16;8.50;99.90
19652;DHT22;9974;52.146;14.668;2024-01-30T14:40:42;8.50;99.90
19652;DHT22;9974;52.146;14.668;2024-01-30T14:43:07;8.50;99.90
19652;DHT22;9974;52.146;14.668;2024-01-30T14:45:33;8.40;99.90
19652;DHT22;9974;52.146;14.668;2024-01-30T14:47:59;8.40;99.90
19652;DHT22;9974;52.146;14.668;2024-01-30T14:50:25;8.30;99.90
19652;DHT22;9974;52.146;14.668;2024-01-30T14:52:52;8.20;99.90
19652;DHT22;9974;52.146;14.668;2024-01-30T14:55:17;8.30;99.90
19652;DHT22;9974;52.146;14.668;2024-01-30T14:57:43;8.20;99.90
19652;DHT22;9974;52.146;14.668;2024-01-30T15:00:11;8.20;99.90
19652;DHT22;9974;52.146;14.668;2024-01-30T15:05:03;8.20;99.90
19652;DHT22;9974;52.146;14.668;2024-01-30T15:07:29;8.20;99.90
19652;DHT22;9974;52.146;14.668;2024-01-30T15:09:55;8.20;99.90
19652;DHT22;9974;52.146;14.668;2024-01-30T15:12:20;8.10;99.90
19652;DHT22;9974;52.146;14.668;2024-01-30T15:14:46;8.10;99.90
19652;DHT22;9974;52.146;14.668;2024-01-30T15:22:12;8.00;99.90
19652;DHT22;9974;52.146;14.668;2024-01-30T15:24:38;7.90;99.90
19652;DHT22;9974;52.146;14.668;2024-01-30T15:27:04;7.90;99.90
19652;DHT22;9974;52.146;14.668;2024-01-30T15:29:30;7.90;99.90
19652;DHT22;9974;52.146;14.668;2024-01-30T15:31:55;7.80;99.90
19652;DHT22;9974;52.146;14.668;2024-01-30T15:34:21;7.70;99.90
19652;DHT22;9974;52.146;14.668;2024-01-30T15:36:47;7.70;99.90
19652;DHT22;9974;52.146;14.668;2024-01-30T15:39:14;7.60;99.90
19652;DHT22;9974;52.146;14.668;2024-01-30T15:41:40;7.50;99.90
19652;DHT22;9974;52.146;14.668;2024-01-30T15:44:06;7.50;99.90
19652;DHT22;9974;52.146;14.668;2024-01-30T15:46:32;7.50;99.90
19652;DHT22;9974;52.146;14.668;2024-01-30T15:48:58;7.40;99.90
19652;DHT22;9974;52.146;14.668;2024-01-30T15:51:24;7.40;99.90
19652;DHT22;9974;52.146;14.668;2024-01-30T15:53:50;7.40;99.90
19652;DHT22;9974;52.146;14.668;2024-01-30T15:56:15;7.30;99.90
19652;DHT22;9974;52.146;14.668;2024-01-30T15:58:41;7.30;99.90